createdAt,value
2022-12-17T00:03:41.086Z,42.7
2022-12-17T00:18:40.497Z,42.73
2022-12-17T00:33:40.414Z,42.99
2022-12-17T00:48:40.361Z,42.81
2022-12-17T01:18:40.680Z,43.28
2022-12-17T01:33:40.725Z,41.61
2022-12-17T01:48:40.653Z,40.12
2022-12-17T02:03:40.007Z,40
2022-12-17T02:18:40.351Z,38.18
2022-12-17T02:33:40.241Z,37.65
2022-12-17T02:48:39.891Z,37.03
2022-12-17T03:33:40.709Z,28.94
2022-12-17T03:48:40.917Z,28.66
2022-12-17T04:18:40.227Z,20.33
2022-12-17T04:33:40.196Z,19.36
2022-12-17T04:48:40.256Z,17.71
2022-12-17T05:03:41.084Z,13.34
2022-12-17T05:18:40.568Z,12.22
2022-12-17T05:33:39.996Z,10.95
2022-12-17T05:48:40.676Z,48.08
2022-12-17T06:03:41.016Z,16.43
2022-12-17T06:18:40.101Z,8.16
2022-12-17T06:33:40.254Z,9.2
2022-12-17T06:48:40.476Z,7.97
2022-12-17T07:03:40.153Z,7.59
2022-12-17T07:18:40.628Z,7.03
2022-12-17T07:33:40.051Z,6.95
2022-12-17T08:03:41.117Z,9.78
2022-12-17T08:18:40.013Z,14.3
2022-12-17T08:33:40.069Z,29.93
2022-12-17T08:48:40.163Z,16.18
2022-12-17T09:33:40.639Z,18.68
2022-12-17T09:48:40.656Z,26.73
2022-12-17T10:03:40.385Z,24.88
2022-12-17T10:18:40.756Z,27.77
2022-12-17T10:33:40.024Z,22.67
2022-12-17T11:03:40.346Z,25.32
2022-12-17T11:18:40.460Z,38.57
2022-12-17T11:33:40.096Z,37.12
2022-12-17T11:48:40.727Z,37.26
2022-12-17T12:03:40.689Z,40.83
2022-12-17T12:18:40.450Z,45.54
2022-12-17T12:33:39.997Z,52.81
2022-12-17T12:48:40.631Z,52.78
2022-12-17T13:03:40.373Z,51.9
2022-12-17T13:18:40.583Z,47.69
2022-12-17T13:33:40.522Z,53.26
2022-12-17T13:48:40.715Z,54.14
2022-12-17T14:04:04.923Z,53.61
2022-12-17T14:18:40.105Z,38.84
2022-12-17T14:33:40.350Z,43.85
2022-12-17T14:48:40.350Z,38.32
2022-12-17T15:03:40.194Z,51.41
2022-12-17T15:18:40.607Z,35.59
2022-12-17T15:33:40.716Z,32.7
2022-12-17T15:48:46.470Z,43.11
2022-12-17T16:03:40.110Z,46.86
2022-12-17T16:18:40.500Z,44.8
2022-12-17T16:48:41.918Z,41.78
2022-12-17T17:03:40.119Z,43.95
2022-12-17T17:18:40.585Z,43.12
2022-12-17T17:33:40.157Z,37.79
2022-12-17T17:48:40.806Z,33.39
2022-12-17T18:33:40.506Z,25.24
2022-12-17T18:48:40.615Z,23.25
2022-12-17T19:18:45.269Z,27.11
2022-12-17T19:48:43.723Z,16.99
2022-12-17T21:48:42.304Z,11.04
2022-12-17T22:34:01.294Z,7.12
2022-12-17T22:48:40.778Z,7.02
2022-12-17T23:18:44.466Z,5.02
2022-12-17T23:33:40.942Z,3.29
2022-12-17T23:48:44.945Z,3.05
